Time;durP1;ratioP1;P1;durP2;ratioP2;P2;SDS_P1;SDS_P2;PMS_P1;PMS_P2;Temp;Humidity;BMP_temperature;BMP_pressure;BME280_temperature;BME280_humidity;BME280_pressure;Samples;Min_cycle;Max_cycle;Signal;HPM_P1;HPM_P2
2024/04/09 09:09:27;;;;;;;6.50;0.80;;;;;;;22.00;56.44;99560.60;110565;1272;22533;-92
2024/04/09 09:13:45;;;;;;;4.00;0.50;;;;;;;22.09;55.50;99559.64;110414;1272;22359;-91
2024/04/09 09:17:40;;;;;;;4.60;0.40;;;;;;;22.27;55.00;99552.52;102836;1261;22640;-93
2024/04/09 09:22:07;;;;;;;5.20;0.50;;;;;;;22.41;54.83;99553.64;110583;1270;22550;-92
2024/04/09 09:29:39;;;;;;;2.20;0.50;;;;;;;22.59;54.01;99550.85;110405;1276;22579;-92
2024/04/09 09:45:09;;;;;;;5.20;0.60;;;;;;;22.99;52.74;99542.09;110574;1272;23669;-91
2024/04/09 09:49:21;;;;;;;6.50;0.50;;;;;;;23.16;51.85;99537.16;110748;1274;22587;-93
2024/04/09 09:52:57;;;;;;;3.90;0.40;;;;;;;23.29;51.41;99535.98;110532;1271;23028;-93
2024/04/09 09:57:10;;;;;;;5.30;0.60;;;;;;;23.42;50.57;99532.57;110716;1270;22573;-92
2024/04/09 10:05:15;;;;;;;5.90;0.50;;;;;;;23.59;49.15;99537.92;110670;1272;22073;-92
2024/04/09 10:09:01;;;;;;;4.90;0.50;;;;;;;23.70;49.12;99529.25;110768;1271;22536;-93
2024/04/09 10:13:25;;;;;;;3.30;0.40;;;;;;;23.79;48.02;99525.45;111021;1270;22661;-92
2024/04/09 10:17:02;;;;;;;5.60;0.60;;;;;;;23.93;48.04;99516.77;111046;1270;22593;-93
2024/04/09 10:29:24;;;;;;;5.30;1.00;;;;;;;24.25;47.24;99501.84;110723;1274;22462;-93
2024/04/09 10:33:49;;;;;;;9.60;0.90;;;;;;;24.34;46.21;99502.43;110946;1256;22615;-91
2024/04/09 10:41:17;;;;;;;3.70;0.50;;;;;;;24.55;45.75;99499.13;111092;1266;22549;-91
2024/04/09 10:45:04;;;;;;;5.90;0.60;;;;;;;24.62;44.92;99492.83;110891;1270;24016;-93
2024/04/09 10:48:45;;;;;;;6.10;0.60;;;;;;;24.72;45.02;99494.12;110874;1265;22545;-93
2024/04/09 10:56:15;;;;;;;5.70;0.50;;;;;;;24.84;44.06;99495.72;111099;1260;22560;-94
2024/04/09 10:59:49;;;;;;;4.10;0.50;;;;;;;24.87;43.10;99481.67;111123;1269;22589;-94
2024/04/09 11:03:56;;;;;;;5.00;0.50;;;;;;;24.92;43.21;99475.58;110590;1271;22793;-92
2024/04/09 11:11:24;;;;;;;3.20;0.60;;;;;;;24.99;42.76;99479.80;110948;1268;23104;-94
2024/04/09 11:15:59;;;;;;;3.50;0.40;;;;;;;25.01;42.50;99474.11;110811;1268;22549;-93
2024/04/09 11:19:46;;;;;;;5.80;0.60;;;;;;;25.07;41.85;99484.14;110994;1269;22598;-93
2024/04/09 11:23:54;;;;;;;3.90;0.60;;;;;;;25.07;41.50;99483.90;110927;1268;22649;-93
2024/04/09 11:28:05;;;;;;;3.40;0.40;;;;;;;25.12;41.78;99487.98;110934;1271;23172;-93
2024/04/09 11:32:59;;;;;;;3.90;0.40;;;;;;;25.21;41.39;99477.39;110491;1276;23386;-92
2024/04/09 11:40:54;;;;;;;4.60;0.50;;;;;;;25.35;40.99;99470.28;110776;1272;22557;-93
2024/04/09 11:44:56;;;;;;;8.20;0.80;;;;;;;25.40;40.78;99470.80;111046;1266;23376;-93
2024/04/09 11:53:15;;;;;;;7.10;0.50;;;;;;;25.54;40.63;99468.61;110524;1275;22605;-92
2024/04/09 12:01:44;;;;;;;8.60;0.60;;;;;;;25.68;40.30;99457.06;110946;1266;22554;-91
2024/04/09 12:06:28;;;;;;;5.00;0.50;;;;;;;25.71;39.95;99456.96;110308;1279;22732;-93
2024/04/09 12:18:54;;;;;;;5.50;0.50;;;;;;;25.84;37.86;99447.63;110755;1272;23928;-93
2024/04/09 12:22:54;;;;;;;8.80;0.50;;;;;;;25.86;37.53;99449.83;111012;1266;22725;-90
2024/04/09 12:34:56;;;;;;;4.60;0.40;;;;;;;25.95;36.91;99437.61;110518;1275;22640;-91
2024/04/09 12:39:42;;;;;;;3.10;0.50;;;;;;;25.95;36.77;99429.73;110665;1273;22609;-92
2024/04/09 12:44:20;;;;;;;5.70;0.70;;;;;;;25.97;36.84;99437.00;110906;1266;22558;-93
2024/04/09 12:49:04;;;;;;;6.90;1.50;;;;;;;26.02;36.64;99436.23;110652;1275;23908;-91
2024/04/09 12:57:38;;;;;;;9.50;1.30;;;;;;;26.15;36.70;99426.51;110918;1268;22534;-92
2024/04/09 13:01:40;;;;;;;5.10;0.60;;;;;;;26.19;36.45;99422.09;111068;1270;22576;-92
2024/04/09 13:06:05;;;;;;;7.40;0.80;;;;;;;26.22;36.22;99417.52;110956;1268;22571;-93
2024/04/09 13:10:39;;;;;;;2.50;0.40;;;;;;;26.23;36.46;99417.02;111045;1266;22553;-93
2024/04/09 13:15:27;;;;;;;4.00;0.40;;;;;;;26.20;36.65;99418.83;110534;1271;22570;-92
2024/04/09 13:20:05;;;;;;;7.10;1.50;;;;;;;26.20;36.52;99418.70;111017;1270;23826;-92
2024/04/09 13:24:30;;;;;;;8.30;2.00;;;;;;;26.24;36.67;99413.85;107168;1311;544127;-92
2024/04/09 13:29:11;;;;;;;6.90;0.60;;;;;;;26.29;36.54;99407.13;109594;1289;22568;-92
2024/04/09 13:33:15;;;;;;;10.10;0.40;;;;;;;26.33;36.80;99408.90;109456;1291;23775;-92
2024/04/09 13:38:03;;;;;;;2.60;0.70;;;;;;;26.36;36.69;99409.98;106008;1279;5177004;-93
2024/04/09 13:42:19;;;;;;;4.40;0.80;;;;;;;26.38;36.41;99413.39;110354;1274;22564;-93
2024/04/09 13:46:40;;;;;;;6.40;1.60;;;;;;;26.41;36.69;99418.45;109973;1276;23648;-92
2024/04/09 13:51:24;;;;;;;10.40;0.70;;;;;;;26.45;36.94;99419.90;110226;1276;23425;-93
2024/04/09 13:56:15;;;;;;;3.70;0.50;;;;;;;26.48;36.48;99415.39;110001;1281;23423;-93
2024/04/09 13:59:48;;;;;;;8.40;1.00;;;;;;;26.46;36.60;99413.06;110370;1270;22549;-91
2024/04/09 14:04:23;;;;;;;2.60;0.50;;;;;;;26.44;36.60;99406.67;110679;1272;23798;-92
2024/04/09 14:13:35;;;;;;;6.80;0.50;;;;;;;26.52;36.80;99409.64;110621;1274;23138;-94
2024/04/09 14:17:53;;;;;;;4.70;0.70;;;;;;;26.58;36.74;99409.59;110805;1267;22534;-94
2024/04/09 14:22:04;;;;;;;4.60;0.60;;;;;;;26.60;37.09;99408.85;110527;1270;22560;-93
2024/04/09 14:30:15;;;;;;;6.10;0.70;;;;;;;26.58;36.63;99419.47;110298;1271;22541;-93
2024/04/09 14:34:30;;;;;;;3.50;0.50;;;;;;;26.63;36.39;99419.39;110268;1272;22592;-92
2024/04/09 14:39:00;;;;;;;5.80;0.80;;;;;;;26.67;36.31;99421.29;109988;1274;22737;-93
2024/04/09 14:42:41;;;;;;;5.00;0.50;;;;;;;26.71;36.28;99424.11;110221;1271;22471;-93
2024/04/09 14:47:26;;;;;;;6.70;0.60;;;;;;;26.72;35.93;99420.50;110082;1281;22729;-91
2024/04/09 14:51:53;;;;;;;5.70;0.60;;;;;;;26.72;36.08;99420.36;110097;1279;22279;-92
2024/04/09 14:56:20;;;;;;;6.90;0.70;;;;;;;26.75;35.99;99419.08;110307;1279;22395;-92
2024/04/09 15:00:23;;;;;;;3.90;0.60;;;;;;;26.77;36.25;99418.52;110051;1276;23527;-92
2024/04/09 15:04:52;;;;;;;6.80;0.70;;;;;;;26.81;36.12;99421.36;110131;1277;23021;-92
2024/04/09 15:09:04;;;;;;;5.80;0.70;;;;;;;26.80;35.81;99423.77;110234;1282;22306;-92
2024/04/09 15:13:49;;;;;;;4.50;0.60;;;;;;;26.80;35.82;99417.74;110439;1279;24057;-93
2024/04/09 15:18:18;;;;;;;4.70;0.50;;;;;;;26.80;35.83;99421.61;110500;1274;22535;-92
2024/04/09 15:23:03;;;;;;;9.10;0.70;;;;;;;26.77;35.71;99425.45;110362;1272;23190;-93
2024/04/09 15:27:02;;;;;;;4.50;0.50;;;;;;;26.76;35.94;99426.77;110187;1270;22630;-93
2024/04/09 15:34:46;;;;;;;5.40;0.60;;;;;;;26.79;36.31;99433.98;109596;1272;22642;-92
2024/04/09 15:38:04;;;;;;;7.60;0.80;;;;;;;26.78;36.48;99438.64;109392;1279;22703;-92
2024/04/09 15:42:38;;;;;;;4.80;0.60;;;;;;;26.75;36.74;99440.74;110052;1276;22367;-93
2024/04/09 15:47:04;;;;;;;4.30;0.50;;;;;;;26.69;36.45;99447.59;110303;1272;22540;-90
2024/04/09 15:51:08;;;;;;;6.00;0.60;;;;;;;26.66;36.83;99450.50;110541;1276;22167;-93
2024/04/09 15:55:19;;;;;;;7.90;0.50;;;;;;;26.56;36.82;99448.98;110653;1276;22635;-91
2024/04/09 16:03:18;;;;;;;4.60;0.60;;;;;;;26.45;37.39;99455.77;110610;1278;22800;-92
2024/04/09 16:07:36;;;;;;;5.90;0.60;;;;;;;26.37;37.59;99457.80;110689;1278;22287;-92
2024/04/09 16:11:13;;;;;;;3.70;0.50;;;;;;;26.33;37.39;99460.38;110743;1278;22222;-93
2024/04/09 16:15:12;;;;;;;6.00;0.60;;;;;;;26.25;37.47;99461.21;110498;1276;22165;-92
2024/04/09 16:19:19;;;;;;;4.70;0.80;;;;;;;26.16;37.65;99463.88;110302;1279;22722;-91
2024/04/09 16:23:47;;;;;;;6.10;0.70;;;;;;;26.09;37.72;99464.84;110212;1274;22562;-92
2024/04/09 16:28:23;;;;;;;4.90;0.80;;;;;;;26.02;38.22;99462.10;110513;1273;22238;-92
2024/04/09 16:33:08;;;;;;;9.20;3.30;;;;;;;25.91;38.43;99469.34;110687;1270;22306;-92
2024/04/09 16:37:34;;;;;;;4.50;1.00;;;;;;;25.82;38.59;99471.52;110527;1279;22206;-92
2024/04/09 16:41:45;;;;;;;6.30;0.60;;;;;;;25.68;38.96;99473.83;110502;1279;22418;-93
2024/04/09 16:45:34;;;;;;;6.50;0.60;;;;;;;25.54;38.86;99476.50;110534;1273;22170;-92
2024/04/09 16:49:15;;;;;;;7.30;0.80;;;;;;;25.40;39.06;99478.13;110638;1273;22225;-91
2024/04/09 16:53:51;;;;;;;8.20;0.80;;;;;;;25.26;39.08;99485.77;110427;1274;22276;-92
2024/04/09 16:58:05;;;;;;;5.20;0.50;;;;;;;25.14;39.58;99492.24;110372;1272;22321;-92
2024/04/09 17:01:45;;;;;;;7.60;0.80;;;;;;;25.07;39.96;99493.86;110526;1272;22294;-91
2024/04/09 17:05:30;;;;;;;5.40;0.80;;;;;;;24.96;40.00;99496.86;110521;1273;22648;-92
2024/04/09 17:10:15;;;;;;;5.60;0.80;;;;;;;24.79;39.89;99503.27;110598;1277;22233;-91
2024/04/09 17:14:35;;;;;;;22.30;3.80;;;;;;;24.62;40.13;99517.10;110555;1270;23165;-90
2024/04/09 17:18:19;;;;;;;8.90;1.30;;;;;;;24.54;40.22;99522.17;110345;1274;22815;-93
2024/04/09 17:21:37;;;;;;;5.60;1.20;;;;;;;24.47;40.55;99524.41;109755;1277;25339;-93
2024/04/09 17:25:46;;;;;;;9.30;1.40;;;;;;;24.34;40.33;99530.95;110156;1277;23525;-93
2024/04/09 17:29:42;;;;;;;11.30;1.60;;;;;;;24.20;40.74;99532.79;110608;1258;23168;-90
2024/04/09 17:33:38;;;;;;;13.50;2.40;;;;;;;24.13;40.97;99534.48;110270;1276;22576;-91
2024/04/09 17:37:01;;;;;;;13.10;1.50;;;;;;;24.00;41.18;99546.29;110208;1257;23693;-83
2024/04/09 17:39:57;;;;;;;12.00;1.20;;;;;;;23.92;41.32;99547.80;109318;1279;22589;-89
2024/04/09 17:43:00;;;;;;;4.90;0.80;;;;;;;23.82;41.48;99552.60;108746;1276;23901;-90
2024/04/09 17:46:01;;;;;;;5.60;0.70;;;;;;;23.72;41.76;99556.13;109172;1279;22577;-89
2024/04/09 17:49:06;;;;;;;7.00;1.00;;;;;;;23.66;41.91;99564.94;108718;1277;22480;-88
2024/04/09 17:52:16;;;;;;;5.50;0.70;;;;;;;23.58;42.24;99567.30;110291;1278;22159;-91
2024/04/09 17:55:24;;;;;;;4.00;0.60;;;;;;;23.49;42.52;99574.23;110323;1274;22189;-92
2024/04/09 17:58:23;;;;;;;4.30;0.80;;;;;;;23.39;42.53;99575.11;110509;1278;22872;-92
2024/04/09 18:01:13;;;;;;;6.80;0.70;;;;;;;23.32;42.93;99574.81;108057;1276;25338;-86
2024/04/09 18:04:03;;;;;;;4.60;0.60;;;;;;;23.26;43.20;99581.41;108095;1277;22641;-84
2024/04/09 18:06:54;;;;;;;5.70;1.00;;;;;;;23.19;43.43;99583.83;107716;1264;22707;-86
2024/04/09 18:09:47;;;;;;;4.70;1.10;;;;;;;23.10;43.45;99586.33;107796;1279;22531;-84
2024/04/09 18:12:38;;;;;;;11.00;1.00;;;;;;;23.00;43.90;99592.11;107508;1279;22759;-85
2024/04/09 18:15:28;;;;;;;6.20;0.80;;;;;;;22.91;44.19;99597.42;107727;1279;22563;-84
2024/04/09 18:18:19;;;;;;;7.90;0.90;;;;;;;22.83;44.36;99605.59;107602;1279;22689;-85
2024/04/09 18:21:10;;;;;;;5.00;0.70;;;;;;;22.75;44.50;99610.16;107900;1279;24255;-84
2024/04/09 18:24:00;;;;;;;4.20;0.80;;;;;;;22.66;44.77;99614.20;107660;1279;22532;-84
2024/04/09 18:26:51;;;;;;;15.00;1.40;;;;;;;22.61;45.01;99614.95;107418;1279;22780;-87
2024/04/09 18:29:42;;;;;;;4.20;1.00;;;;;;;22.51;45.18;99622.77;107621;1279;25326;-83
2024/04/09 18:32:33;;;;;;;7.50;0.90;;;;;;;22.42;45.47;99626.94;107626;1279;22560;-83
2024/04/09 18:35:24;;;;;;;5.50;0.70;;;;;;;22.31;45.55;99630.29;107903;1277;22577;-82
2024/04/09 18:38:14;;;;;;;10.70;0.90;;;;;;;22.22;45.90;99639.65;107796;1278;25356;-84
2024/04/09 18:41:06;;;;;;;12.00;1.10;;;;;;;22.14;46.01;99644.38;107703;1279;24340;-82
2024/04/09 18:43:57;;;;;;;9.60;1.00;;;;;;;22.08;46.23;99643.90;107795;1279;22574;-82
2024/04/09 18:46:49;;;;;;;7.40;1.10;;;;;;;22.01;46.52;99649.96;107842;1279;25221;-83
2024/04/09 18:49:41;;;;;;;11.80;1.20;;;;;;;21.93;46.61;99656.04;107735;1279;22714;-83
2024/04/09 18:52:31;;;;;;;4.90;0.70;;;;;;;21.86;46.74;99664.13;107837;1279;22925;-85
2024/04/09 18:55:22;;;;;;;9.60;1.10;;;;;;;21.80;47.08;99667.61;107612;1279;24265;-82
2024/04/09 18:58:12;;;;;;;9.20;1.10;;;;;;;21.70;47.35;99666.63;107720;1258;22627;-83
2024/04/09 19:01:04;;;;;;;6.90;1.10;;;;;;;21.59;47.67;99674.78;107398;1279;24370;-83
2024/04/09 19:03:54;;;;;;;9.10;1.10;;;;;;;21.49;47.90;99672.67;107544;1279;25342;-83
2024/04/09 19:06:45;;;;;;;9.70;1.00;;;;;;;21.38;48.26;99679.33;107510;1270;22542;-87
2024/04/09 19:09:37;;;;;;;6.40;0.90;;;;;;;21.28;48.52;99682.77;107721;1279;22564;-86
2024/04/09 19:13:16;;;;;;;15.50;1.40;;;;;;;21.20;48.73;99686.29;107693;1279;22537;-86
2024/04/09 19:16:09;;;;;;;9.40;1.00;;;;;;;21.09;49.13;99686.95;107399;1276;22612;-87
2024/04/09 19:19:03;;;;;;;7.90;1.10;;;;;;;21.02;49.41;99691.81;107423;1279;23286;-86
2024/04/09 19:28:04;;;;;;;6.80;1.00;;;;;;;20.77;50.27;99703.38;107336;1279;22534;-86
2024/04/09 19:31:22;;;;;;;6.90;1.00;;;;;;;20.66;50.55;99713.85;107379;1279;22544;-86
2024/04/09 19:34:15;;;;;;;9.10;1.00;;;;;;;20.60;50.87;99716.80;107475;1276;23328;-86
2024/04/09 19:37:06;;;;;;;6.30;1.00;;;;;;;20.54;51.21;99720.13;107485;1279;22535;-85
2024/04/09 19:39:57;;;;;;;5.10;0.90;;;;;;;20.47;51.51;99731.14;107238;1279;22602;-85
2024/04/09 19:42:48;;;;;;;8.70;1.00;;;;;;;20.39;51.73;99736.42;107520;1279;23249;-86
2024/04/09 19:45:49;;;;;;;6.90;1.00;;;;;;;20.33;52.16;99741.34;107281;1279;22686;-86
2024/04/09 19:48:39;;;;;;;14.80;1.90;;;;;;;20.25;52.45;99745.68;107348;1279;22639;-87
2024/04/09 19:51:33;;;;;;;8.40;1.00;;;;;;;20.20;52.82;99749.60;107310;1279;22574;-86
2024/04/09 19:56:18;;;;;;;14.60;1.30;;;;;;;20.15;53.18;99753.34;107417;1279;22533;-87
2024/04/09 20:00:51;;;;;;;9.00;1.50;;;;;;;20.16;53.55;99764.31;107344;1279;23363;-87
2024/04/09 20:03:41;;;;;;;15.00;2.10;;;;;;;20.18;53.82;99771.77;107534;1279;22639;-87
2024/04/09 20:06:59;;;;;;;20.30;2.00;;;;;;;20.21;53.96;99776.42;107446;1279;25443;-86
2024/04/09 20:09:51;;;;;;;17.10;2.50;;;;;;;20.22;54.20;99783.71;107538;1279;25789;-85
2024/04/09 20:12:43;;;;;;;16.60;2.10;;;;;;;20.23;54.47;99785.96;107542;1279;22556;-86
2024/04/09 20:15:33;;;;;;;16.50;2.60;;;;;;;20.22;54.51;99789.28;107449;1280;22661;-86
2024/04/09 20:18:24;;;;;;;18.60;2.10;;;;;;;20.22;54.71;99799.77;107575;1279;25227;-85
2024/04/09 20:21:34;;;;;;;19.80;3.20;;;;;;;20.21;54.99;99809.02;107452;1279;24812;-86
2024/04/09 20:24:27;;;;;;;17.40;2.10;;;;;;;20.22;55.14;99807.07;107605;1278;25002;-86
2024/04/09 20:27:20;;;;;;;18.10;2.10;;;;;;;20.19;55.22;99813.09;107566;1279;22761;-86
2024/04/09 20:30:12;;;;;;;12.80;2.20;;;;;;;20.16;55.37;99810.26;107698;1279;24213;-86
2024/04/09 20:33:04;;;;;;;16.10;2.40;;;;;;;20.10;55.59;99814.90;107689;1279;22593;-86
2024/04/09 20:35:57;;;;;;;24.10;2.90;;;;;;;20.06;55.80;99819.59;107899;1279;25486;-85
2024/04/09 20:38:48;;;;;;;16.30;2.30;;;;;;;20.04;56.03;99824.30;107770;1279;24381;-86
2024/04/09 20:41:40;;;;;;;18.50;2.20;;;;;;;20.02;56.15;99827.91;107713;1278;23377;-86
2024/04/09 20:44:32;;;;;;;20.10;2.90;;;;;;;20.01;56.37;99837.27;107736;1278;22566;-87
2024/04/09 20:47:24;;;;;;;17.40;2.00;;;;;;;19.98;56.43;99836.41;107661;1278;22747;-87
2024/04/09 20:50:16;;;;;;;18.80;2.60;;;;;;;19.94;56.72;99838.69;107521;1279;22719;-86
2024/04/09 20:53:07;;;;;;;16.80;2.40;;;;;;;19.89;56.77;99842.88;107466;1279;23014;-87
2024/04/09 20:56:05;;;;;;;17.20;2.90;;;;;;;19.87;56.92;99853.70;107370;1279;22528;-86
2024/04/09 20:58:56;;;;;;;15.00;2.40;;;;;;;19.82;57.01;99847.48;107646;1279;22822;-86
2024/04/09 21:01:48;;;;;;;19.60;2.40;;;;;;;19.77;57.40;99857.05;107742;1278;22607;-86
2024/04/09 21:04:40;;;;;;;16.20;2.20;;;;;;;19.73;57.55;99861.65;107545;1279;22555;-89
2024/04/09 21:07:32;;;;;;;14.40;1.90;;;;;;;19.72;57.50;99859.67;107368;1279;25287;-85
2024/04/09 21:10:25;;;;;;;11.60;1.70;;;;;;;19.68;57.67;99859.86;107631;1279;23810;-86
2024/04/09 21:13:15;;;;;;;14.80;2.10;;;;;;;19.64;57.89;99863.02;107536;1279;25670;-85
2024/04/09 21:16:08;;;;;;;15.40;1.30;;;;;;;19.59;58.21;99870.50;107677;1279;22627;-85
2024/04/09 21:19:00;;;;;;;16.90;1.60;;;;;;;19.54;58.49;99873.13;107459;1279;22622;-86
2024/04/09 21:21:51;;;;;;;12.00;1.00;;;;;;;19.49;58.59;99872.52;107448;1277;22596;-85
2024/04/09 21:24:44;;;;;;;12.00;1.70;;;;;;;19.44;58.66;99875.30;107469;1279;24319;-85
2024/04/09 21:27:35;;;;;;;13.30;1.40;;;;;;;19.40;58.98;99885.00;107582;1279;22538;-85
2024/04/09 21:30:29;;;;;;;12.80;1.20;;;;;;;19.34;59.26;99895.19;107574;1261;22646;-85
2024/04/09 21:33:20;;;;;;;14.30;1.30;;;;;;;19.28;59.52;99895.14;107698;1279;22509;-85
2024/04/09 21:36:12;;;;;;;10.60;1.30;;;;;;;19.23;59.64;99900.09;107629;1271;22570;-84
2024/04/09 21:39:06;;;;;;;15.40;1.80;;;;;;;19.19;60.00;99908.72;107617;1279;22668;-85
2024/04/09 21:41:58;;;;;;;12.90;1.20;;;;;;;19.12;60.29;99917.61;107602;1279;22555;-84
2024/04/09 21:44:51;;;;;;;10.40;1.60;;;;;;;19.06;60.19;99914.80;107595;1258;22489;-85
2024/04/09 21:47:43;;;;;;;16.30;1.70;;;;;;;19.02;60.43;99912.84;107620;1279;22534;-85
2024/04/09 21:50:36;;;;;;;11.40;1.50;;;;;;;18.98;60.73;99916.73;107598;1279;22574;-84
2024/04/09 21:53:28;;;;;;;10.20;1.30;;;;;;;18.91;60.83;99922.15;107487;1279;22545;-85
2024/04/09 21:56:18;;;;;;;12.30;1.30;;;;;;;18.84;61.14;99928.69;107513;1279;24275;-85
2024/04/09 21:59:09;;;;;;;8.00;0.90;;;;;;;18.78;61.25;99937.77;107441;1279;22581;-85
2024/04/09 22:02:00;;;;;;;5.90;0.90;;;;;;;18.72;61.52;99942.75;107532;1279;23415;-85
2024/04/09 22:04:51;;;;;;;11.60;1.80;;;;;;;18.64;61.69;99942.23;108011;1270;22630;-85
2024/04/09 22:07:42;;;;;;;12.90;1.10;;;;;;;18.60;61.76;99947.81;108096;1279;24198;-85
2024/04/09 22:10:34;;;;;;;8.70;1.00;;;;;;;18.53;61.96;99951.16;108030;1279;24927;-85
2024/04/09 22:13:25;;;;;;;10.90;1.40;;;;;;;18.47;62.15;99959.04;107979;1280;24327;-85
2024/04/09 22:16:17;;;;;;;6.40;1.00;;;;;;;18.40;62.11;99960.35;108226;1279;22560;-85
2024/04/09 22:19:08;;;;;;;7.20;0.90;;;;;;;18.34;62.26;99967.30;108010;1279;23242;-85
2024/04/09 22:21:59;;;;;;;11.90;1.20;;;;;;;18.30;62.29;99968.96;108005;1279;23421;-85
2024/04/09 22:24:50;;;;;;;8.00;0.90;;;;;;;18.24;62.37;99974.55;108053;1279;22752;-85
2024/04/09 22:27:45;;;;;;;7.40;0.70;;;;;;;18.20;62.48;99984.79;108004;1279;22935;-85
2024/04/09 22:30:38;;;;;;;6.00;0.90;;;;;;;18.14;62.90;99993.09;108088;1279;23916;-85
2024/04/09 22:33:30;;;;;;;11.40;0.80;;;;;;;18.08;62.88;99996.64;107933;1279;22604;-84
2024/04/09 22:36:21;;;;;;;7.10;0.90;;;;;;;18.04;62.83;100006.88;108076;1279;22591;-85
2024/04/09 22:39:12;;;;;;;11.90;1.30;;;;;;;18.00;63.31;100017.97;107986;1279;24320;-85
2024/04/09 22:42:05;;;;;;;7.20;0.90;;;;;;;17.95;63.21;100021.88;108013;1279;22559;-85
2024/04/09 22:44:57;;;;;;;12.40;1.00;;;;;;;17.92;63.44;100033.95;108019;1276;22582;-84
2024/04/09 22:47:47;;;;;;;6.40;1.00;;;;;;;17.90;63.63;100036.09;108002;1279;24612;-85
2024/04/09 22:50:38;;;;;;;14.00;1.00;;;;;;;17.88;63.80;100041.77;108003;1279;24329;-84
2024/04/09 22:53:31;;;;;;;11.10;0.90;;;;;;;17.86;64.04;100041.06;107939;1279;23755;-84
2024/04/09 22:56:22;;;;;;;13.00;1.30;;;;;;;17.86;64.24;100047.18;108236;1279;24382;-85
2024/04/09 22:59:13;;;;;;;9.90;0.90;;;;;;;17.85;64.53;100052.48;108050;1279;22686;-87
2024/04/09 23:02:03;;;;;;;7.10;1.00;;;;;;;17.85;64.63;100059.48;107971;1279;22688;-86
2024/04/09 23:04:54;;;;;;;10.00;0.80;;;;;;;17.85;64.67;100066.55;107918;1279;25662;-85
2024/04/09 23:07:45;;;;;;;5.40;0.70;;;;;;;17.84;64.75;100072.83;107962;1280;24071;-83
2024/04/09 23:10:36;;;;;;;8.10;0.80;;;;;;;17.83;65.18;100072.89;107880;1279;22771;-84
2024/04/09 23:13:27;;;;;;;7.00;0.80;;;;;;;17.84;64.97;100071.80;107888;1279;24202;-84
2024/04/09 23:16:18;;;;;;;6.80;0.90;;;;;;;17.83;65.15;100082.48;107944;1280;22538;-84
2024/04/09 23:19:10;;;;;;;7.60;0.80;;;;;;;17.82;65.41;100084.87;107939;1276;23821;-84
2024/04/09 23:22:03;;;;;;;8.70;0.90;;;;;;;17.80;65.77;100089.77;107980;1279;22577;-86
2024/04/09 23:24:55;;;;;;;8.20;1.20;;;;;;;17.77;66.12;100096.27;108016;1279;25741;-85
2024/04/09 23:27:45;;;;;;;6.40;0.90;;;;;;;17.75;66.57;100103.38;108188;1279;25473;-85
2024/04/09 23:30:37;;;;;;;7.50;1.30;;;;;;;17.74;66.36;100107.04;107994;1279;22554;-85
2024/04/09 23:33:28;;;;;;;7.50;1.00;;;;;;;17.74;66.75;100112.48;108040;1279;23033;-85
2024/04/09 23:36:19;;;;;;;7.00;1.40;;;;;;;17.73;67.03;100123.38;108160;1279;22563;-84
2024/04/09 23:39:10;;;;;;;6.70;0.80;;;;;;;17.72;66.95;100122.98;107876;1279;22680;-85
2024/04/09 23:42:01;;;;;;;7.50;0.90;;;;;;;17.70;67.48;100137.48;107900;1279;22580;-85
2024/04/09 23:44:52;;;;;;;7.60;0.90;;;;;;;17.63;67.74;100152.60;107940;1279;22561;-85
2024/04/09 23:47:42;;;;;;;9.40;0.90;;;;;;;17.51;68.00;100152.36;108082;1270;22576;-84
2024/04/09 23:50:33;;;;;;;7.50;0.80;;;;;;;17.42;68.05;100155.98;108051;1279;22593;-85
2024/04/09 23:53:24;;;;;;;7.00;0.80;;;;;;;17.32;68.07;100164.14;108121;1279;22706;-84
2024/04/09 23:56:15;;;;;;;9.30;0.80;;;;;;;17.18;68.16;100169.39;107878;1279;22546;-84
2024/04/09 23:59:05;;;;;;;8.40;0.80;;;;;;;17.05;68.11;100182.83;107871;1279;23298;-87
